createdAt,value
2022-12-06T00:02:13.072Z,11.14
2022-12-06T00:04:39.923Z,10.98
2022-12-06T00:07:07.003Z,11.04
2022-12-06T00:09:34.474Z,10.98
2022-12-06T00:12:01.204Z,10.98
2022-12-06T00:14:28.204Z,11.00
2022-12-06T00:16:55.160Z,10.98
2022-12-06T00:19:23.869Z,11.01
2022-12-06T00:21:52.824Z,10.97
2022-12-06T00:24:21.987Z,11.07
2022-12-06T00:26:50.107Z,11.01
2022-12-06T00:29:21.725Z,11.16
2022-12-06T00:31:49.581Z,11.26
2022-12-06T00:34:16.989Z,11.30
2022-12-06T00:36:43.894Z,11.34
2022-12-06T00:39:17.237Z,11.22
2022-12-06T00:41:45.380Z,11.37
2022-12-06T00:44:12.485Z,11.36
2022-12-06T00:46:39.816Z,11.38
2022-12-06T00:49:08.048Z,11.43
2022-12-06T00:51:37.183Z,11.44
2022-12-06T00:54:04.504Z,11.49
2022-12-06T00:56:32.404Z,11.57
2022-12-06T00:58:59.479Z,11.69
2022-12-06T01:01:29.323Z,11.70
2022-12-06T01:04:02.781Z,11.72
2022-12-06T01:06:32.641Z,11.73
2022-12-06T01:09:03.219Z,11.79
2022-12-06T01:11:30.556Z,11.79
2022-12-06T01:13:58.166Z,11.84
2022-12-06T01:16:29.019Z,11.79
2022-12-06T01:19:01.531Z,11.72
2022-12-06T01:21:29.039Z,11.81
2022-12-06T01:23:55.867Z,11.85
2022-12-06T01:26:25.490Z,11.94
2022-12-06T01:28:53.002Z,11.96
2022-12-06T01:31:20.170Z,12.01
2022-12-06T01:33:47.299Z,11.99
2022-12-06T01:36:22.571Z,11.88
2022-12-06T01:38:57.324Z,11.78
2022-12-06T01:41:26.408Z,11.87
2022-12-06T01:43:53.982Z,11.90
2022-12-06T01:46:38.482Z,11.84
2022-12-06T01:49:11.733Z,11.81
2022-12-06T01:51:41.085Z,11.74
2022-12-06T01:54:11.423Z,11.77
2022-12-06T01:56:40.411Z,11.80
2022-12-06T01:59:08.303Z,11.83
2022-12-06T02:01:36.125Z,11.77
2022-12-06T02:04:03.161Z,11.83
2022-12-06T02:06:32.073Z,11.86
2022-12-06T02:09:01.274Z,11.87
2022-12-06T02:11:32.159Z,11.77
2022-12-06T02:14:05.071Z,11.87
2022-12-06T02:16:31.742Z,11.87
2022-12-06T02:19:13.570Z,11.87
2022-12-06T02:21:58.019Z,11.81
2022-12-06T02:24:44.523Z,11.84
2022-12-06T02:27:20.538Z,11.92
2022-12-06T02:30:08.940Z,11.87
2022-12-06T02:32:55.101Z,11.88
2022-12-06T02:35:25.229Z,11.90
2022-12-06T02:37:59.885Z,11.85
2022-12-06T02:40:42.996Z,11.84
2022-12-06T02:43:16.143Z,11.77
2022-12-06T02:45:50.329Z,11.93
2022-12-06T02:48:19.423Z,11.97
2022-12-06T02:50:53.695Z,12.01
2022-12-06T02:53:24.221Z,12.02
2022-12-06T02:55:52.140Z,12.01
2022-12-06T02:58:18.951Z,12.01
2022-12-06T03:00:50.906Z,12.05
2022-12-06T03:03:49.484Z,11.99
2022-12-06T03:06:40.918Z,12.02
2022-12-06T03:09:29.685Z,12.02
2022-12-06T03:12:08.551Z,12.01
2022-12-06T03:14:46.448Z,11.97
2022-12-06T03:17:44.087Z,11.91
2022-12-06T03:20:43.174Z,11.76
2022-12-06T03:23:17.364Z,11.71
2022-12-06T03:25:46.924Z,11.71
2022-12-06T03:28:16.764Z,11.61
2022-12-06T03:30:49.439Z,11.61
2022-12-06T03:33:18.675Z,11.58
2022-12-06T03:35:47.215Z,11.62
2022-12-06T03:38:37.525Z,11.57
2022-12-06T03:41:06.096Z,11.28
2022-12-06T03:43:33.921Z,11.44
2022-12-06T03:46:17.838Z,11.41
2022-12-06T03:48:53.980Z,11.45
2022-12-06T03:51:26.327Z,11.40
2022-12-06T03:53:56.487Z,11.45
2022-12-06T03:56:23.770Z,11.43
2022-12-06T03:58:50.663Z,11.42
2022-12-06T04:01:17.801Z,11.45
2022-12-06T04:03:44.940Z,11.47
2022-12-06T04:06:12.397Z,11.47
2022-12-06T04:08:39.328Z,11.52
2022-12-06T04:11:06.468Z,11.48
2022-12-06T04:13:33.564Z,11.38
2022-12-06T04:16:01.851Z,11.39
2022-12-06T04:18:28.746Z,11.39
2022-12-06T04:21:19.957Z,11.39
2022-12-06T04:23:49.467Z,11.34
2022-12-06T04:26:19.385Z,11.44
2022-12-06T04:29:04.999Z,11.52
2022-12-06T04:31:50.482Z,11.55
2022-12-06T04:34:36.141Z,11.53
2022-12-06T04:37:21.520Z,11.44
2022-12-06T04:39:48.666Z,11.42
2022-12-06T04:42:34.099Z,11.42
2022-12-06T04:45:01.021Z,11.36
2022-12-06T04:47:28.517Z,11.30
2022-12-06T04:49:55.420Z,11.17
2022-12-06T04:52:22.162Z,11.29
2022-12-06T04:54:48.928Z,11.25
2022-12-06T04:57:16.972Z,11.32
2022-12-06T04:59:46.281Z,11.30
2022-12-06T05:02:14.796Z,11.25
2022-12-06T05:04:41.738Z,11.28
2022-12-06T05:07:08.783Z,11.26
2022-12-06T05:09:35.568Z,11.30
2022-12-06T05:12:02.516Z,11.33
2022-12-06T05:14:29.316Z,11.41
2022-12-06T05:16:56.076Z,11.54
2022-12-06T05:19:22.948Z,11.58
2022-12-06T05:21:49.640Z,11.61
2022-12-06T05:24:16.364Z,11.71
2022-12-06T05:26:43.287Z,11.72
2022-12-06T05:29:10.090Z,11.63
2022-12-06T05:31:36.851Z,11.58
2022-12-06T05:34:03.683Z,11.56
2022-12-06T05:36:30.515Z,11.56
2022-12-06T05:38:57.584Z,11.54
2022-12-06T05:41:25.235Z,11.54
2022-12-06T05:43:52.188Z,11.51
2022-12-06T05:46:19.077Z,11.52
2022-12-06T05:48:45.969Z,11.52
2022-12-06T05:51:14.072Z,11.54
2022-12-06T05:53:41.483Z,11.49
2022-12-06T05:56:11.518Z,11.55
2022-12-06T05:58:40.029Z,11.53
2022-12-06T06:01:08.252Z,11.41
2022-12-06T06:03:35.980Z,11.41
2022-12-06T06:06:03.238Z,11.35
2022-12-06T06:08:30.654Z,11.31
2022-12-06T06:10:58.280Z,11.26
2022-12-06T06:13:25.349Z,11.20
2022-12-06T06:15:52.375Z,11.25
2022-12-06T06:18:19.744Z,11.26
2022-12-06T06:20:55.034Z,11.23
2022-12-06T06:23:22.885Z,11.30
2022-12-06T06:25:49.649Z,11.34
2022-12-06T06:28:17.022Z,11.33
2022-12-06T06:30:44.979Z,11.44
2022-12-06T06:33:12.635Z,11.46
2022-12-06T06:35:39.588Z,11.51
2022-12-06T06:38:06.831Z,11.52
2022-12-06T06:40:33.914Z,11.49
2022-12-06T06:43:18.555Z,11.53
2022-12-06T06:45:56.657Z,11.41
2022-12-06T06:48:24.779Z,11.36
2022-12-06T06:50:56.966Z,11.36
2022-12-06T06:53:26.570Z,11.33
2022-12-06T06:55:54.407Z,11.28
2022-12-06T06:58:21.128Z,11.31
2022-12-06T07:00:55.937Z,11.33
2022-12-06T07:03:23.661Z,11.25
2022-12-06T07:05:53.446Z,11.32
2022-12-06T07:08:20.939Z,11.26
2022-12-06T07:10:48.953Z,11.28
2022-12-06T07:13:16.745Z,11.27
2022-12-06T07:15:43.493Z,11.23
2022-12-06T07:18:10.819Z,11.24
2022-12-06T07:20:37.545Z,11.19
2022-12-06T07:23:06.495Z,11.15
2022-12-06T07:25:33.569Z,11.09
2022-12-06T07:28:06.183Z,11.19
2022-12-06T07:30:37.412Z,11.24
2022-12-06T07:33:04.282Z,11.30
2022-12-06T07:36:03.151Z,11.32
2022-12-06T07:38:26.867Z,11.27
2022-12-06T07:41:25.431Z,11.30
2022-12-06T07:44:18.227Z,11.22
2022-12-06T07:46:51.934Z,11.20
2022-12-06T07:49:19.968Z,11.16
2022-12-06T07:51:47.210Z,11.24
2022-12-06T07:54:15.422Z,11.24
2022-12-06T07:56:43.958Z,11.20
2022-12-06T07:59:11.447Z,11.25
2022-12-06T08:01:38.614Z,11.18
2022-12-06T08:04:06.428Z,11.18
2022-12-06T08:06:34.195Z,11.12
2022-12-06T08:09:01.073Z,11.05
2022-12-06T08:11:28.906Z,11.18
2022-12-06T08:13:55.920Z,11.18
2022-12-06T08:16:22.922Z,11.11
2022-12-06T08:18:50.005Z,11.11
2022-12-06T08:21:16.741Z,11.09
2022-12-06T08:23:43.419Z,11.17
2022-12-06T08:26:14.420Z,11.16
2022-12-06T08:28:43.342Z,11.23
2022-12-06T08:31:16.273Z,11.27
2022-12-06T08:33:43.623Z,11.30
2022-12-06T08:36:13.212Z,11.33
2022-12-06T08:38:40.377Z,11.39
2022-12-06T08:41:28.790Z,11.45
2022-12-06T08:43:57.156Z,11.53
2022-12-06T08:46:24.761Z,11.56
2022-12-06T08:48:52.406Z,11.59
2022-12-06T08:51:19.173Z,11.78
2022-12-06T08:53:46.288Z,11.84
2022-12-06T08:56:13.411Z,11.84
2022-12-06T08:58:40.355Z,11.92
2022-12-06T09:01:16.668Z,11.96
2022-12-06T09:03:43.605Z,12.06
2022-12-06T09:06:11.260Z,12.12
2022-12-06T09:08:38.318Z,12.18
2022-12-06T09:11:06.149Z,12.25
2022-12-06T09:13:34.721Z,12.30
2022-12-06T09:16:06.678Z,12.37
2022-12-06T09:18:33.812Z,12.43
2022-12-06T09:21:05.465Z,12.54
2022-12-06T09:23:32.427Z,12.57
2022-12-06T09:25:59.263Z,12.61
2022-12-06T09:28:26.344Z,12.53
2022-12-06T09:30:53.055Z,12.51
2022-12-06T09:33:19.759Z,12.47
2022-12-06T09:35:46.757Z,12.49
2022-12-06T09:38:13.891Z,12.34
2022-12-06T09:40:52.871Z,12.35
2022-12-06T09:43:19.539Z,12.36
2022-12-06T09:45:56.469Z,12.24
2022-12-06T09:48:45.677Z,12.29
2022-12-06T09:51:24.557Z,12.39
2022-12-06T09:54:23.142Z,12.34
2022-12-06T09:57:07.785Z,12.37
2022-12-06T09:59:57.797Z,12.51
2022-12-06T10:02:30.807Z,12.59
2022-12-06T10:05:39.077Z,12.69
2022-12-06T10:08:27.603Z,12.83
2022-12-06T10:11:31.061Z,12.88
2022-12-06T10:14:12.839Z,13.03
2022-12-06T10:16:57.908Z,13.21
2022-12-06T10:19:58.291Z,13.32
2022-12-06T10:22:44.258Z,13.58
2022-12-06T10:25:24.979Z,13.79
2022-12-06T10:28:37.561Z,14.08
2022-12-06T10:31:40.994Z,14.34
2022-12-06T10:34:36.681Z,14.45
2022-12-06T10:37:18.339Z,14.39
2022-12-06T10:39:59.817Z,14.37
2022-12-06T10:42:34.211Z,14.50
2022-12-06T10:45:34.389Z,14.64
2022-12-06T10:48:02.710Z,14.79
2022-12-06T10:50:33.280Z,15.10
2022-12-06T10:53:13.509Z,15.14
2022-12-06T10:55:58.499Z,15.30
2022-12-06T10:58:31.333Z,15.46
2022-12-06T11:01:02.092Z,15.65
2022-12-06T11:03:44.050Z,15.86
2022-12-06T11:06:44.210Z,15.96
2022-12-06T11:09:13.691Z,16.02
2022-12-06T11:11:41.668Z,16.25
2022-12-06T11:14:20.614Z,16.58
2022-12-06T11:17:05.878Z,17.55
2022-12-06T11:19:39.634Z,18.95
2022-12-06T11:22:45.152Z,20.66
2022-12-06T11:25:15.445Z,21.92
2022-12-06T11:27:49.636Z,22.19
2022-12-06T11:30:20.552Z,22.06
2022-12-06T11:32:51.865Z,21.85
2022-12-06T11:35:28.616Z,22.16
2022-12-06T11:38:00.418Z,22.81
2022-12-06T11:40:34.481Z,22.88
2022-12-06T11:43:05.675Z,22.37
2022-12-06T11:45:35.013Z,21.46
2022-12-06T11:48:28.849Z,20.56
2022-12-06T11:50:55.784Z,20.06
2022-12-06T11:53:33.648Z,19.49
2022-12-06T11:56:26.749Z,18.88
2022-12-06T11:59:07.911Z,19.06
2022-12-06T12:01:55.121Z,19.15
2022-12-06T12:04:37.122Z,19.27
2022-12-06T12:07:09.993Z,19.08
2022-12-06T12:09:56.021Z,18.87
2022-12-06T12:13:08.586Z,18.93
2022-12-06T12:15:36.617Z,19.29
2022-12-06T12:18:04.668Z,19.44
2022-12-06T12:20:36.585Z,19.64
2022-12-06T12:23:22.012Z,20.06
2022-12-06T12:26:13.688Z,20.39
2022-12-06T12:28:43.190Z,21.66
2022-12-06T12:31:26.849Z,22.50
2022-12-06T12:34:14.900Z,23.45
2022-12-06T12:36:48.576Z,24.24
2022-12-06T12:39:39.457Z,24.72
2022-12-06T12:42:29.241Z,24.89
2022-12-06T12:45:01.252Z,24.53
2022-12-06T12:47:28.836Z,24.44
2022-12-06T12:50:23.982Z,24.99
2022-12-06T12:52:52.009Z,26.45
2022-12-06T12:55:26.210Z,27.16
2022-12-06T12:57:55.014Z,26.16
2022-12-06T13:00:25.878Z,26.15
2022-12-06T13:03:18.121Z,27.26
2022-12-06T13:05:53.964Z,26.09
2022-12-06T13:08:27.136Z,24.52
2022-12-06T13:10:59.450Z,24.55
2022-12-06T13:13:49.975Z,25.01
2022-12-06T13:16:35.536Z,25.17
2022-12-06T13:19:03.022Z,24.02
2022-12-06T13:21:41.342Z,22.85
2022-12-06T13:24:18.308Z,22.10
2022-12-06T13:26:50.027Z,21.53
2022-12-06T13:29:34.764Z,21.02
2022-12-06T13:32:14.988Z,20.17
2022-12-06T13:34:47.691Z,19.64
2022-12-06T13:37:34.861Z,18.97
2022-12-06T13:40:03.477Z,18.81
2022-12-06T13:42:36.369Z,18.45
2022-12-06T13:45:06.012Z,18.15
2022-12-06T13:47:32.625Z,17.86
2022-12-06T13:50:16.377Z,17.65
2022-12-06T13:52:43.156Z,17.51
2022-12-06T13:55:25.058Z,17.34
2022-12-06T13:58:00.642Z,17.22
2022-12-06T14:00:30.440Z,17.07
2022-12-06T14:03:21.853Z,16.97
2022-12-06T14:06:15.741Z,16.86
2022-12-06T14:08:54.367Z,16.90
2022-12-06T14:11:32.932Z,17.03
2022-12-06T14:14:09.918Z,17.05
2022-12-06T14:16:42.338Z,17.04
2022-12-06T14:19:28.465Z,16.98
2022-12-06T14:22:17.075Z,17.02
2022-12-06T14:25:04.442Z,16.93
2022-12-06T14:27:34.522Z,16.80
2022-12-06T14:30:04.621Z,16.38
2022-12-06T14:32:35.462Z,16.22
2022-12-06T14:35:11.599Z,16.44
2022-12-06T14:37:39.052Z,16.48
2022-12-06T14:40:44.525Z,16.46
2022-12-06T14:43:17.588Z,16.45
2022-12-06T14:45:45.714Z,16.47
2022-12-06T14:48:13.471Z,16.47
2022-12-06T14:50:58.521Z,16.36
2022-12-06T14:53:32.785Z,16.40
2022-12-06T14:56:03.391Z,16.35
2022-12-06T14:58:36.169Z,16.29
2022-12-06T15:01:15.164Z,16.37
2022-12-06T15:03:42.013Z,16.45
2022-12-06T15:06:21.639Z,16.50
2022-12-06T15:08:58.935Z,16.49
2022-12-06T15:11:59.912Z,16.41
2022-12-06T15:14:47.886Z,16.28
2022-12-06T15:17:22.316Z,16.43
2022-12-06T15:19:51.460Z,16.52
2022-12-06T15:22:24.814Z,16.52
2022-12-06T15:24:57.571Z,16.51
2022-12-06T15:27:27.172Z,16.52
2022-12-06T15:29:54.275Z,16.50
2022-12-06T15:32:23.850Z,16.52
2022-12-06T15:34:50.588Z,16.42
2022-12-06T15:40:04.828Z,16.40
2022-12-06T15:42:31.614Z,16.28
2022-12-06T15:44:58.306Z,16.15
2022-12-06T15:47:25.392Z,16.06
2022-12-06T15:49:54.026Z,15.97
2022-12-06T15:52:24.894Z,15.99
2022-12-06T15:54:52.047Z,15.94
2022-12-06T15:57:18.737Z,15.87
2022-12-06T15:59:45.621Z,15.84
2022-12-06T16:02:17.574Z,15.78
2022-12-06T16:04:45.107Z,15.70
2022-12-06T16:07:14.388Z,15.71
2022-12-06T16:09:41.186Z,15.67
2022-12-06T16:12:07.936Z,15.63
2022-12-06T16:14:34.638Z,15.61
2022-12-06T16:17:02.021Z,15.54
2022-12-06T16:19:48.868Z,15.60
2022-12-06T16:22:15.765Z,15.56
2022-12-06T16:24:42.516Z,15.57
2022-12-06T16:27:09.341Z,15.55
2022-12-06T16:29:36.152Z,15.53
2022-12-06T16:32:03.035Z,15.51
2022-12-06T16:34:30.277Z,15.46
2022-12-06T16:36:57.100Z,15.50
2022-12-06T16:39:23.864Z,15.46
2022-12-06T16:41:50.606Z,15.30
2022-12-06T16:44:17.372Z,15.41
2022-12-06T16:46:45.696Z,15.34
2022-12-06T16:52:11.038Z,15.18
2022-12-06T16:54:41.801Z,15.17
2022-12-06T16:57:10.187Z,15.19
2022-12-06T16:59:37.167Z,15.10
2022-12-06T17:02:08.586Z,14.92
2022-12-06T17:04:39.699Z,14.91
2022-12-06T17:07:06.570Z,14.87
2022-12-06T17:09:33.241Z,14.79
2022-12-06T17:12:02.793Z,14.69
2022-12-06T17:14:30.461Z,14.58
2022-12-06T17:16:59.239Z,14.60
2022-12-06T17:19:28.281Z,14.58
2022-12-06T17:21:55.828Z,14.59
2022-12-06T17:24:24.891Z,14.60
2022-12-06T17:26:54.132Z,14.60
2022-12-06T17:29:21.531Z,14.58
2022-12-06T17:31:48.339Z,14.61
2022-12-06T17:34:15.752Z,14.64
2022-12-06T17:36:43.069Z,14.64
2022-12-06T17:39:13.007Z,14.69
2022-12-06T17:41:58.318Z,14.61
2022-12-06T17:44:25.326Z,14.64
2022-12-06T17:46:52.115Z,14.64
2022-12-06T17:49:21.605Z,14.74
2022-12-06T17:51:48.990Z,14.74
2022-12-06T17:54:21.201Z,14.76
2022-12-06T17:56:53.567Z,14.80
2022-12-06T17:59:29.063Z,14.81
2022-12-06T18:02:15.069Z,14.77
2022-12-06T18:04:44.111Z,14.70
2022-12-06T18:07:14.566Z,14.70
2022-12-06T18:09:43.774Z,14.62
2022-12-06T18:12:14.916Z,14.58
2022-12-06T18:14:44.088Z,14.45
2022-12-06T18:17:11.722Z,14.54
2022-12-06T18:19:49.376Z,14.52
2022-12-06T18:22:23.265Z,14.37
2022-12-06T18:24:52.367Z,14.33
2022-12-06T18:27:19.103Z,14.29
2022-12-06T18:29:48.826Z,14.25
2022-12-06T18:32:21.145Z,14.19
2022-12-06T18:34:47.835Z,14.07
2022-12-06T18:37:14.540Z,14.05
2022-12-06T18:39:41.374Z,14.04
2022-12-06T18:42:08.116Z,14.03
2022-12-06T18:44:34.847Z,13.97
2022-12-06T18:47:01.616Z,13.95
2022-12-06T18:49:28.942Z,13.92
2022-12-06T18:51:55.648Z,13.92
2022-12-06T18:54:22.533Z,13.94
2022-12-06T18:56:49.229Z,13.91
2022-12-06T18:59:22.016Z,13.94
2022-12-06T19:01:51.354Z,13.91
2022-12-06T19:04:19.540Z,13.88
2022-12-06T19:06:46.298Z,13.85
2022-12-06T19:09:15.624Z,13.79
2022-12-06T19:11:46.286Z,13.76
2022-12-06T19:14:13.901Z,13.74
2022-12-06T19:16:46.346Z,13.72
2022-12-06T19:19:19.366Z,13.70
2022-12-06T19:21:47.530Z,13.68
2022-12-06T19:24:16.778Z,13.72
2022-12-06T19:26:44.578Z,13.70
2022-12-06T19:29:11.773Z,13.74
2022-12-06T19:31:38.442Z,13.73
2022-12-06T19:34:05.416Z,13.76
2022-12-06T19:36:32.821Z,13.74
2022-12-06T19:39:02.061Z,13.68
2022-12-06T19:41:29.735Z,13.67
2022-12-06T19:44:15.188Z,13.62
2022-12-06T19:46:43.905Z,13.60
2022-12-06T19:49:12.403Z,13.62
2022-12-06T19:51:41.652Z,13.57
2022-12-06T19:54:09.224Z,13.62
2022-12-06T19:56:37.060Z,13.56
2022-12-06T19:59:11.605Z,13.66
2022-12-06T20:01:46.484Z,13.66
2022-12-06T20:04:16.471Z,13.71
2022-12-06T20:06:43.609Z,13.73
2022-12-06T20:09:10.919Z,13.75
2022-12-06T20:11:57.396Z,13.80
2022-12-06T20:14:24.192Z,13.78
2022-12-06T20:16:51.197Z,13.78
2022-12-06T20:19:19.320Z,13.79
2022-12-06T20:21:46.216Z,13.80
2022-12-06T20:24:19.046Z,13.83
2022-12-06T20:26:47.258Z,13.85
2022-12-06T20:29:18.070Z,13.80
2022-12-06T20:31:45.718Z,13.77
2022-12-06T20:34:15.379Z,13.75
2022-12-06T20:36:43.119Z,13.74
2022-12-06T20:39:22.056Z,13.63
2022-12-06T20:41:49.845Z,13.73
2022-12-06T20:44:17.275Z,13.64
2022-12-06T20:46:44.883Z,13.66
2022-12-06T20:49:11.638Z,13.61
2022-12-06T20:51:38.337Z,13.61
2022-12-06T20:54:07.171Z,13.58
2022-12-06T20:56:36.828Z,13.63
2022-12-06T20:59:05.304Z,13.56
2022-12-06T21:01:35.734Z,13.66
2022-12-06T21:04:02.869Z,13.65
2022-12-06T21:06:29.597Z,13.60
2022-12-06T21:08:56.336Z,13.50
2022-12-06T21:11:25.095Z,13.49
2022-12-06T21:13:57.113Z,13.35
2022-12-06T21:16:26.585Z,13.37
2022-12-06T21:18:55.968Z,13.31
2022-12-06T21:21:32.610Z,13.25
2022-12-06T21:24:04.986Z,13.25
2022-12-06T21:26:32.301Z,13.25
2022-12-06T21:28:59.639Z,13.26
2022-12-06T21:31:31.650Z,13.20
2022-12-06T21:33:58.597Z,13.18
2022-12-06T21:36:25.868Z,13.15
2022-12-06T21:38:53.354Z,13.08
2022-12-06T21:41:20.923Z,12.99
2022-12-06T21:43:48.059Z,12.94
2022-12-06T21:46:25.943Z,12.81
2022-12-06T21:48:57.846Z,12.78
2022-12-06T21:51:27.685Z,12.71
2022-12-06T21:53:55.237Z,12.64
2022-12-06T21:56:25.401Z,12.59
2022-12-06T21:58:54.324Z,12.26
2022-12-06T22:01:29.026Z,12.42
2022-12-06T22:03:59.350Z,12.48
2022-12-06T22:06:26.723Z,12.52
2022-12-06T22:09:02.727Z,12.47
2022-12-06T22:11:30.477Z,12.52
2022-12-06T22:13:59.645Z,12.48
2022-12-06T22:16:27.389Z,12.45
2022-12-06T22:18:55.315Z,12.48
2022-12-06T22:21:26.235Z,12.44
2022-12-06T22:23:53.245Z,12.44
2022-12-06T22:26:22.924Z,12.40
2022-12-06T22:28:50.491Z,12.46
2022-12-06T22:31:20.255Z,12.45
2022-12-06T22:33:48.000Z,12.46
2022-12-06T22:36:15.720Z,12.50
2022-12-06T22:38:43.077Z,12.50
2022-12-06T22:41:10.341Z,12.47
2022-12-06T22:43:37.550Z,12.49
2022-12-06T22:46:10.947Z,12.49
2022-12-06T22:48:38.257Z,12.45
2022-12-06T22:51:18.439Z,12.43
2022-12-06T22:53:46.551Z,12.20
2022-12-06T22:56:14.585Z,12.39
2022-12-06T22:58:41.532Z,12.37
2022-12-06T23:01:11.877Z,12.47
2022-12-06T23:03:42.955Z,12.45
2022-12-06T23:06:09.963Z,12.51
2022-12-06T23:08:36.891Z,12.52
2022-12-06T23:11:10.517Z,12.53
2022-12-06T23:13:37.287Z,12.54
2022-12-06T23:16:07.923Z,12.50
2022-12-06T23:18:35.169Z,12.51
2022-12-06T23:21:09.613Z,12.50
2022-12-06T23:23:36.596Z,12.53
2022-12-06T23:26:08.654Z,12.53
2022-12-06T23:28:35.802Z,12.56
2022-12-06T23:31:14.179Z,12.53
2022-12-06T23:33:42.615Z,12.52
2022-12-06T23:36:18.244Z,12.53
2022-12-06T23:38:45.103Z,12.52
2022-12-06T23:41:14.843Z,12.51
2022-12-06T23:43:42.006Z,12.50
2022-12-06T23:46:12.696Z,12.46
2022-12-06T23:48:39.718Z,12.50
2022-12-06T23:51:12.214Z,12.46
2022-12-06T23:53:39.661Z,12.55
2022-12-06T23:56:12.087Z,12.55
2022-12-06T23:58:39.717Z,12.50
